TAF Text Data
IDs:
Format:
Raw Decoded Include METAR

Data at: 0142 UTC 26 Apr 2019

Region: TOP
KATL 252345Z 2600/2706 20009G16KT P6SM VCSH FEW045 BKN060
  TEMPO 2600/2601 5SM -SHRA BKN025
  FM260100 19008KT 4SM -SHRA BKN050
  FM260600 21011KT 6SM -SHRA BKN020
  FM260900 23011KT P6SM -RA BKN012
  FM261100 24011G18KT P6SM BKN008
  FM261400 31019G29KT P6SM SCT025
  FM261900 32025G33KT P6SM SCT200


KBOS 252320Z 2600/2706 14010KT P6SM FEW040 BKN150
  FM260800 13006KT P6SM BKN080
  FM261000 12007KT P6SM VCSH OVC050
  FM261300 11011KT 5SM -SHRA BR OVC015
  FM261500 10013G20KT 2SM -SHRA BR OVC003
  FM262200 12009KT 2SM -SHRA BR OVC003
  FM270200 14007KT 3SM -SHRA BR OVC008 WS020/18040KT


KBWI 252340Z 2600/2706 10007KT P6SM VCSH SCT050 OVC120
  FM260300 12006KT 6SM -SHRA SCT025 OVC080
  FM261600 17013G27KT 4SM -SHRA VCTS BKN015CB OVC025
  FM270000 30013G27KT P6SM SCT040 OVC060


KCLE 260100Z 2601/2706 16008KT P6SM -RA OVC070
  FM260300 16008KT P6SM -SHRA OVC050
  FM260600 16010G20KT 5SM -SHRA BR OVC020
  TEMPO 2606/2609 2SM -RA OVC015
  FM260900 20015G25KT 5SM -RA OVC015
  TEMPO 2609/2612 2SM -RA OVC010
  FM261200 28010G20KT 5SM -RA OVC010
  FM261700 31020G30KT 5SM -RA OVC020
  FM262000 32020G30KT P6SM OVC050


KCLT 252328Z 2600/2706 24004KT P6SM SCT140 OVC250
  FM260800 22005KT P6SM VCSH SCT030 BKN150
  FM261300 21012G19KT P6SM -SHRA BKN030
  FM261700 25014KT P6SM -SHRA BKN050
  PROB30 2617/2622 4SM TS OVC025CB
  FM262200 28019G28KT P6SM BKN100
  PROB30 2622/2624 4SM -SHRA OVC025
  FM270000 30012G19KT P6SM VCSH FEW100


KCVG 252333Z 2600/2706 13007KT P6SM VCTS FEW026 BKN045CB OVC250
  TEMPO 2600/2602 VRB20G35KT 2SM +TSRA OVC025CB
  FM260400 21012KT P6SM SHRA OVC025
  FM261300 30014G25KT P6SM -SHRA OVC015
  FM261600 31017G30KT P6SM VCSH BKN025
  FM261800 31016G29KT P6SM VCSH SCT050
  FM270000 30011KT P6SM FEW250


KDCA 252340Z 2600/2706 10007KT P6SM VCSH SCT045 OVC150
  FM260900 16008KT 6SM -SHRA SCT025 OVC060
  FM261600 18014G28KT 4SM -SHRA VCTS OVC025CB
  FM270000 30016G33KT P6SM SCT040 OVC070


KDEN 252339Z 2600/2706 11007KT P6SM FEW070 SCT220
  FM260600 17012KT P6SM FEW220
  FM261000 20010KT P6SM SKC
  FM261400 24008KT P6SM SCT200
  FM261900 27010KT P6SM SCT080 BKN220
  FM262300 28013KT P6SM VCTS SCT060CB BKN120
  PROB30 2623/2702 VRB23G33KT -TSRA BKN060CB


KDFW 252320Z 2600/2706 33010KT P6SM FEW250
  FM261600 06009KT P6SM SCT150
  FM262100 12006KT P6SM FEW150


KDTW 252320Z 2600/2706 08006KT P6SM -SHRA BKN028 OVC040
  FM260200 04006KT 5SM -RA BR OVC018
  FM260500 01008KT 2SM RA BR BKN008 OVC014
  FM260900 34014KT 3SM -RA BR BKN006 OVC012
  FM261200 32017G25KT P6SM -SHRA BKN014 OVC030
  FM261700 29018G28KT P6SM BKN045
  FM270000 28015G24KT P6SM SKC


KEWR 252339Z 2600/2706 15004KT P6SM SCT070 OVC100
  TEMPO 2600/2601 -RA
  FM260300 12004KT P6SM BKN060
  TEMPO 2603/2606 6SM -SHRA
  FM260600 08005KT P6SM BKN050
  FM260900 06007KT 6SM -RA BKN030
  FM261200 07010KT 5SM -RA SCT008 OVC015
  FM261400 07010KT P6SM VCSH BKN008
  FM262000 14010G18KT 4SM -RA SCT008 BKN015
  FM262300 19010G18KT 4SM RA BKN020
  FM270300 28014G23KT P6SM SCT025 BKN070


KFLL 252325Z 2600/2706 15010KT P6SM FEW035 SCT150 BKN250
  FM260200 17008KT P6SM FEW035 SCT250
  FM261400 22015KT P6SM SCT035 BKN050
  FM270000 28010KT P6SM FEW035 SCT250


KIAD 252340Z 2600/2706 11005KT P6SM VCSH SCT050 OVC130
  FM260300 13006KT 6SM -SHRA SCT035 OVC050
  FM261600 18014G28KT 4SM -SHRA VCTS OVC025CB
  FM270000 31017G35KT P6SM SCT040 BKN070


KIAH 252320Z 2600/2706 34012KT P6SM SCT060
  FM260100 33004KT P6SM SKC
  FM261400 03009KT P6SM SKC


KJFK 252339Z 2600/2706 15006KT P6SM -RA BKN060
  FM260300 12005KT P6SM BKN060
  TEMPO 2603/2606 6SM -RA
  FM260600 09007KT P6SM BKN050
  FM260900 09007KT 6SM -RA BKN030
  FM261200 09010KT 5SM -RA SCT008 OVC015
  FM261400 10010KT P6SM VCSH BKN008
  FM262000 15012KT 4SM -RA SCT008 BKN015 WS020/20050KT
  FM262300 18016KT 4SM SHRA BKN020 WS020/19050KT
  FM270300 27015G24KT P6SM SCT025 BKN070


KLAS 252320Z 2600/2706 10008G15KT P6SM SCT110 SCT250
  FM260300 20011KT P6SM SCT110
  FM261900 21014G22KT P6SM FEW110


KLAX 260137Z 2602/2706 26012KT P6SM BKN010
  FM260300 26007KT 4SM BR BKN007
  FM260500 VRB03KT 2SM BR OVC003
  FM261400 VRB03KT 4SM BR OVC006
  FM261800 24006KT 5SM HZ SCT010
  FM262100 26012KT P6SM SKC


KLGA 252339Z 2600/2706 18009KT P6SM SCT070 OVC100
  FM260300 14007KT P6SM BKN060
  TEMPO 2603/2606 6SM -SHRA
  FM260600 10007KT P6SM BKN050
  FM260900 07009KT 6SM -RA BKN030
  FM261200 07012KT 5SM -RA SCT008 OVC015
  FM261400 08012KT P6SM VCSH BKN008
  FM262000 15012G20KT 4SM -RA SCT008 BKN015 WS020/20040KT
  FM262300 19016G23KT 4SM RA BKN020 WS020/19045KT
  FM270300 28015G24KT P6SM SCT025 BKN070


KMCO 252345Z 2600/2706 18007KT P6SM FEW050 BKN250
  FM261200 19010G15KT P6SM SCT020 SCT120 BKN250
  FM261400 23017G24KT P6SM VCTS SCT025CB BKN040 BKN120
  FM261900 26015G22KT P6SM SCT050 BKN250
  FM270000 26009KT P6SM FEW020


KMDW 252322Z 2600/2706 06005KT P6SM BKN120
  FM260230 35010KT P6SM BKN060 OVC100
  FM260500 01015G25KT 6SM -SHRA BKN035
  TEMPO 2606/2609 5SM SHRA OVC020
  FM260900 33011KT P6SM SCT035
  FM261500 32017G29KT P6SM SKC
  FM270100 30010KT P6SM FEW250


KMEM 252331Z 2600/2706 25010KT P6SM VCSH BKN018 OVC090
  FM260100 30012KT P6SM VCSH OVC025
  FM260200 32009KT P6SM BKN045 BKN090
  FM260300 32009G14KT P6SM SCT050
  FM260500 32009KT P6SM BKN060 BKN120
  FM260800 32009KT P6SM SKC
  FM261400 34015G22KT P6SM SCT040
  FM270000 30007KT P6SM SKC


KMIA 252325Z 2600/2706 14010KT P6SM FEW040 SCT150 BKN250
  FM260200 17005KT P6SM FEW035 SCT250
  FM261400 22015KT P6SM SCT035 BKN050
  FM270100 28010KT P6SM FEW035 SCT250


KMSP 252321Z 2600/2706 32015G23KT P6SM SCT100
  FM260400 31011KT P6SM FEW250
  FM261500 32014G24KT P6SM SKC
  FM262300 33011KT P6SM SKC
  FM270400 06005KT P6SM SCT150


KORD 252322Z 2600/2706 06005KT P6SM BKN120
  FM260200 35011KT P6SM BKN060 OVC100
  FM260400 01015G25KT 6SM -SHRA BKN035
  TEMPO 2605/2608 5SM SHRA OVC020
  FM260900 33011KT P6SM SCT035
  FM261500 32017G29KT P6SM SKC
  FM270100 30010KT P6SM FEW250


KPDX 252320Z 2600/2624 32007KT P6SM SCT100 BKN250
  FM260400 30005KT P6SM BKN100 OVC250
  FM261600 29004KT P6SM BKN025


KPHL 252339Z 2600/2706 08006KT P6SM VCSH BKN060 OVC110
  FM260500 10005KT P6SM VCSH SCT015 OVC030
  FM260800 10006KT P6SM -SHRA OVC015
  PROB30 2609/2610 3SM -RA OVC015
  FM261100 11007KT P6SM VCSH OVC050
  FM261500 14006KT P6SM VCSH SCT015 BKN040
  FM261800 19012G20KT P6SM BKN040
  FM262300 19014G22KT 4SM SHRA BR OVC020
  PROB30 2623/2624 6SM -TSRA BKN015CB
  FM270100 29014G24KT 6SM SHRA BR BKN025


KPHX 252320Z 2600/2706 28008KT P6SM SKC
  FM260900 09005KT P6SM SKC
  FM262000 25010KT P6SM SKC


KPIT 260113Z 2601/2706 15005KT 5SM -SHRA BR OVC060
  FM260600 15005KT 5SM -RA BR OVC025 WS020/22040KT
  FM261200 18010KT 3SM -SHRA OVC010
  FM261500 27015G25KT 6SM -SHRA OVC007
  FM262100 30012G22KT P6SM -SHRA OVC025
  FM270200 29012KT P6SM BKN035


KSAN 252320Z 2600/2706 30008KT P6SM FEW012
  FM260300 VRB04KT P6SM SCT010
  FM260500 VRB03KT P6SM OVC009
  FM261630 VRB04KT P6SM SCT011
  FM262000 26009KT P6SM FEW012
  FM270200 VRB04KT P6SM SCT012
  FM270400 VRB03KT P6SM BKN010


KSEA 252329Z 2600/2706 35009KT P6SM BKN150 OVC200
  FM260400 01007KT P6SM BKN070 OVC120
  FM261400 19008KT P6SM FEW025
  FM261700 21010KT P6SM SCT250
  FM262200 21012G20KT P6SM SCT040


KSFO 252341Z 2600/2706 30020G28KT P6SM FEW015
  FM260400 29012KT P6SM FEW012
  FM261000 29005KT P6SM SCT010
  TEMPO 2612/2616 BKN012
  FM261700 31007KT P6SM FEW012 SCT250
  FM262100 31014KT P6SM FEW012 SCT250
  FM262300 30020G25KT P6SM FEW010 SCT250


KSLC 252338Z 2600/2706 35008KT P6SM SCT080 SCT120
  FM260300 15006KT P6SM SCT180
  FM261500 19012KT P6SM VCSH SCT080 BKN120
  FM262100 29012G18KT P6SM VCTS SCT070 BKN090CB
  FM270100 30012KT P6SM SCT060 BKN080


KSTL 260117Z 2601/2706 29006KT P6SM BKN070
  FM260200 32014G22KT P6SM VCSH BKN035
  TEMPO 2602/2603 3SM SHRA OVC020
  FM260300 31014G24KT P6SM BKN035
  FM260500 33013KT P6SM BKN045
  FM261000 31010KT P6SM FEW250


KTPA 252331Z 2600/2706 19007KT P6SM SCT030 OVC250
  FM261100 22010KT P6SM VCTS FEW025CB BKN040 OVC070
  FM261500 22012G20KT 6SM SHRA VCTS SCT015CB OVC040
  FM261800 24014G23KT P6SM VCTS FEW020CB BKN040 OVC100
  FM262000 28015G21KT P6SM SCT040 BKN250